sensor_id;sensor_type;location;lat;lon;timestamp;pressure;altitude;pressure_sealevel;temperature;humidity
21504;BME280;10913;51.992;9.228;2023-02-10T00:00:41;102137.81;;;3.42;91.61
21504;BME280;10913;51.992;9.228;2023-02-10T00:03:06;102127.38;;;3.42;91.46
21504;BME280;10913;51.992;9.228;2023-02-10T00:05:31;102130.97;;;3.44;91.38
21504;BME280;10913;51.992;9.228;2023-02-10T00:07:57;102135.28;;;3.43;91.56
21504;BME280;10913;51.992;9.228;2023-02-10T00:10:22;102129.16;;;3.43;91.41
21504;BME280;10913;51.992;9.228;2023-02-10T00:12:47;102132.75;;;3.45;91.81
21504;BME280;10913;51.992;9.228;2023-02-10T00:15:13;102134.56;;;3.46;91.90
21504;BME280;10913;51.992;9.228;2023-02-10T00:17:38;102131.84;;;3.44;92.11
21504;BME280;10913;51.992;9.228;2023-02-10T00:20:04;102137.09;;;3.44;91.98
21504;BME280;10913;51.992;9.228;2023-02-10T00:22:29;102134.31;;;3.41;92.06
21504;BME280;10913;51.992;9.228;2023-02-10T00:24:54;102135.13;;;3.40;92.22
21504;BME280;10913;51.992;9.228;2023-02-10T00:27:20;102140.44;;;3.42;92.24
21504;BME280;10913;51.992;9.228;2023-02-10T00:29:49;102142.22;;;3.43;92.36
21504;BME280;10913;51.992;9.228;2023-02-10T00:32:14;102136.91;;;3.41;92.96
21504;BME280;10913;51.992;9.228;2023-02-10T00:34:42;102138.88;;;3.45;93.20
21504;BME280;10913;51.992;9.228;2023-02-10T00:37:08;102131.94;;;3.46;93.29
21504;BME280;10913;51.992;9.228;2023-02-10T00:39:33;102138.88;;;3.45;92.98
21504;BME280;10913;51.992;9.228;2023-02-10T00:41:58;102137.97;;;3.45;92.86
21504;BME280;10913;51.992;9.228;2023-02-10T00:44:24;102142.31;;;3.44;92.70
21504;BME280;10913;51.992;9.228;2023-02-10T00:46:49;102147.53;;;3.44;92.32
21504;BME280;10913;51.992;9.228;2023-02-10T00:49:14;102151.84;;;3.44;92.60
21504;BME280;10913;51.992;9.228;2023-02-10T00:51:40;102143.94;;;3.42;93.07
21504;BME280;10913;51.992;9.228;2023-02-10T00:54:05;102153.50;;;3.42;94.24
21504;BME280;10913;51.992;9.228;2023-02-10T00:56:31;102143.94;;;3.42;94.17
21504;BME280;10913;51.992;9.228;2023-02-10T00:58:56;102157.09;;;3.44;93.87
21504;BME280;10913;51.992;9.228;2023-02-10T01:01:21;102150.97;;;3.43;93.41
21504;BME280;10913;51.992;9.228;2023-02-10T01:03:47;102157.09;;;3.44;93.29
21504;BME280;10913;51.992;9.228;2023-02-10T01:06:13;102169.34;;;3.45;93.28
21504;BME280;10913;51.992;9.228;2023-02-10T01:08:40;102158.06;;;3.46;93.50
21504;BME280;10913;51.992;9.228;2023-02-10T01:11:08;102167.63;;;3.45;93.18
21504;BME280;10913;51.992;9.228;2023-02-10T01:13:36;102165.91;;;3.46;93.64
21504;BME280;10913;51.992;9.228;2023-02-10T01:16:09;102166.72;;;3.45;93.69
21504;BME280;10913;51.992;9.228;2023-02-10T01:18:36;102174.56;;;3.45;93.41
21504;BME280;10913;51.992;9.228;2023-02-10T01:21:16;102174.56;;;3.45;93.87
21504;BME280;10913;51.992;9.228;2023-02-10T01:23:43;102177.16;;;3.45;94.11
21504;BME280;10913;51.992;9.228;2023-02-10T01:26:09;102176.34;;;3.46;93.92
21504;BME280;10913;51.992;9.228;2023-02-10T01:28:41;102172.75;;;3.44;93.29
21504;BME280;10913;51.992;9.228;2023-02-10T01:31:09;102179.63;;;3.42;93.54
21504;BME280;10913;51.992;9.228;2023-02-10T01:33:35;102175.22;;;3.41;93.39
21504;BME280;10913;51.992;9.228;2023-02-10T01:36:05;102179.63;;;3.42;94.66
21504;BME280;10913;51.992;9.228;2023-02-10T01:38:30;102172.59;;;3.41;94.28
21504;BME280;10913;51.992;9.228;2023-02-10T01:40:56;102178.59;;;3.38;94.58
21504;BME280;10913;51.992;9.228;2023-02-10T01:43:21;102183.00;;;3.39;94.42
21504;BME280;10913;51.992;9.228;2023-02-10T01:45:46;102181.25;;;3.40;94.22
21504;BME280;10913;51.992;9.228;2023-02-10T01:48:12;102171.69;;;3.40;94.62
21504;BME280;10913;51.992;9.228;2023-02-10T01:50:41;102180.50;;;3.42;94.79
21504;BME280;10913;51.992;9.228;2023-02-10T01:53:08;102184.94;;;3.43;94.48
21504;BME280;10913;51.992;9.228;2023-02-10T01:55:36;102185.09;;;3.46;94.86
21504;BME280;10913;51.992;9.228;2023-02-10T01:58:08;102181.41;;;3.43;94.87
21504;BME280;10913;51.992;9.228;2023-02-10T02:00:35;102184.09;;;3.44;94.55
21504;BME280;10913;51.992;9.228;2023-02-10T02:03:01;102183.38;;;3.47;95.14
21504;BME280;10913;51.992;9.228;2023-02-10T02:05:37;102179.13;;;3.49;95.51
21504;BME280;10913;51.992;9.228;2023-02-10T02:13:15;102174.06;;;3.52;96.46
21504;BME280;10913;51.992;9.228;2023-02-10T02:34:39;102178.31;;;3.50;96.67
21504;BME280;10913;51.992;9.228;2023-02-10T02:37:31;102188.94;;;3.53;96.97
21504;BME280;10913;51.992;9.228;2023-02-10T02:39:55;102182.81;;;3.53;96.74
21504;BME280;10913;51.992;9.228;2023-02-10T02:42:30;102182.00;;;3.54;96.87
21504;BME280;10913;51.992;9.228;2023-02-10T02:45:00;102174.22;;;3.55;97.49
21504;BME280;10913;51.992;9.228;2023-02-10T02:50:33;102176.84;;;3.55;98.27
21504;BME280;10913;51.992;9.228;2023-02-10T02:53:08;102180.28;;;3.54;98.19
21504;BME280;10913;51.992;9.228;2023-02-10T03:01:14;102177.50;;;3.51;98.37
21504;BME280;10913;51.992;9.228;2023-02-10T03:03:40;102174.72;;;3.48;98.23
21504;BME280;10913;51.992;9.228;2023-02-10T03:06:06;102179.78;;;3.45;98.16
21504;BME280;10913;51.992;9.228;2023-02-10T03:08:33;102181.25;;;3.40;97.95
21504;BME280;10913;51.992;9.228;2023-02-10T03:10:59;102182.00;;;3.37;97.55
21504;BME280;10913;51.992;9.228;2023-02-10T03:13:25;102170.50;;;3.34;97.41
21504;BME280;10913;51.992;9.228;2023-02-10T03:15:50;102167.72;;;3.31;97.64
21504;BME280;10913;51.992;9.228;2023-02-10T03:18:16;102173.59;;;3.27;97.81
21504;BME280;10913;51.992;9.228;2023-02-10T03:20:42;102172.53;;;3.23;97.90
21504;BME280;10913;51.992;9.228;2023-02-10T03:23:07;102167.09;;;3.19;97.63
21504;BME280;10913;51.992;9.228;2023-02-10T03:25:33;102171.16;;;3.14;97.89
21504;BME280;10913;51.992;9.228;2023-02-10T03:27:58;102161.38;;;3.09;98.23
21504;BME280;10913;51.992;9.228;2023-02-10T03:30:24;102176.03;;;3.07;98.49
21504;BME280;10913;51.992;9.228;2023-02-10T03:32:50;102166.25;;;3.03;98.58
21504;BME280;10913;51.992;9.228;2023-02-10T03:35:16;102175.72;;;3.01;99.04
21504;BME280;10913;51.992;9.228;2023-02-10T03:37:42;102180.94;;;3.01;99.57
21504;BME280;10913;51.992;9.228;2023-02-10T03:40:07;102174.06;;;3.03;100.00
21504;BME280;10913;51.992;9.228;2023-02-10T03:42:33;102170.00;;;3.08;100.00
21504;BME280;10913;51.992;9.228;2023-02-10T03:44:58;102165.78;;;3.10;100.00
21504;BME280;10913;51.992;9.228;2023-02-10T03:47:24;102164.88;;;3.10;100.00
21504;BME280;10913;51.992;9.228;2023-02-10T03:49:49;102168.47;;;3.12;100.00
21504;BME280;10913;51.992;9.228;2023-02-10T03:52:14;102177.19;;;3.13;99.84
21504;BME280;10913;51.992;9.228;2023-02-10T03:54:40;102182.50;;;3.14;99.07
21504;BME280;10913;51.992;9.228;2023-02-10T03:57:05;102174.75;;;3.16;99.35
21504;BME280;10913;51.992;9.228;2023-02-10T03:59:31;102179.81;;;3.13;99.29
21504;BME280;10913;51.992;9.228;2023-02-10T04:01:56;102175.31;;;3.10;99.74
21504;BME280;10913;51.992;9.228;2023-02-10T04:04:22;102179.63;;;3.09;100.00
21504;BME280;10913;51.992;9.228;2023-02-10T04:06:47;102181.59;;;3.14;100.00
21504;BME280;10913;51.992;9.228;2023-02-10T04:09:13;102185.94;;;3.13;100.00
21504;BME280;10913;51.992;9.228;2023-02-10T04:11:38;102190.25;;;3.13;100.00
21504;BME280;10913;51.992;9.228;2023-02-10T04:14:04;102178.91;;;3.12;100.00
21504;BME280;10913;51.992;9.228;2023-02-10T04:16:29;102177.28;;;3.14;100.00
21504;BME280;10913;51.992;9.228;2023-02-10T04:18:55;102174.59;;;3.13;100.00
21504;BME280;10913;51.992;9.228;2023-02-10T04:21:20;102183.31;;;3.13;100.00
21504;BME280;10913;51.992;9.228;2023-02-10T04:23:46;102183.41;;;3.15;100.00
21504;BME280;10913;51.992;9.228;2023-02-10T04:26:11;102173.84;;;3.15;100.00
21504;BME280;10913;51.992;9.228;2023-02-10T04:28:36;102175.66;;;3.16;100.00
21504;BME280;10913;51.992;9.228;2023-02-10T04:31:02;102183.56;;;3.18;100.00
21504;BME280;10913;51.992;9.228;2023-02-10T04:33:28;102178.34;;;3.18;100.00
21504;BME280;10913;51.992;9.228;2023-02-10T04:35:54;102187.91;;;3.17;100.00
21504;BME280;10913;51.992;9.228;2023-02-10T04:38:21;102187.97;;;3.19;100.00
21504;BME280;10913;51.992;9.228;2023-02-10T04:40:46;102184.59;;;3.21;100.00
21504;BME280;10913;51.992;9.228;2023-02-10T04:43:12;102181.09;;;3.21;100.00
21504;BME280;10913;51.992;9.228;2023-02-10T04:45:37;102178.47;;;3.21;100.00
21504;BME280;10913;51.992;9.228;2023-02-10T04:48:03;102183.72;;;3.21;100.00
21504;BME280;10913;51.992;9.228;2023-02-10T04:50:29;102195.06;;;3.21;100.00
21504;BME280;10913;51.992;9.228;2023-02-10T04:52:54;102193.34;;;3.22;100.00
21504;BME280;10913;51.992;9.228;2023-02-10T04:55:20;102188.03;;;3.20;100.00
21504;BME280;10913;51.992;9.228;2023-02-10T04:57:45;102183.78;;;3.22;100.00
21504;BME280;10913;51.992;9.228;2023-02-10T05:00:11;102181.94;;;3.20;100.00
21504;BME280;10913;51.992;9.228;2023-02-10T05:02:37;102175.75;;;3.18;100.00
21504;BME280;10913;51.992;9.228;2023-02-10T05:05:03;102176.63;;;3.18;100.00
21504;BME280;10913;51.992;9.228;2023-02-10T05:07:29;102187.91;;;3.17;100.00
21504;BME280;10913;51.992;9.228;2023-02-10T05:09:54;102183.56;;;3.18;100.00
21504;BME280;10913;51.992;9.228;2023-02-10T05:12:20;102184.56;;;3.20;100.00
21504;BME280;10913;51.992;9.228;2023-02-10T05:14:45;102175.81;;;3.19;100.00
21504;BME280;10913;51.992;9.228;2023-02-10T05:17:10;102187.09;;;3.18;100.00
21504;BME280;10913;51.992;9.228;2023-02-10T05:19:36;102192.31;;;3.18;100.00
21504;BME280;10913;51.992;9.228;2023-02-10T05:22:01;102193.34;;;3.22;100.00
21504;BME280;10913;51.992;9.228;2023-02-10T05:24:26;102192.44;;;3.21;100.00
21504;BME280;10913;51.992;9.228;2023-02-10T05:26:52;102191.72;;;3.24;100.00
21504;BME280;10913;51.992;9.228;2023-02-10T05:29:17;102197.84;;;3.24;100.00
21504;BME280;10913;51.992;9.228;2023-02-10T05:31:43;102199.63;;;3.25;100.00
21504;BME280;10913;51.992;9.228;2023-02-10T05:34:08;102200.63;;;3.27;100.00
21504;BME280;10913;51.992;9.228;2023-02-10T05:36:33;102203.31;;;3.29;100.00
21504;BME280;10913;51.992;9.228;2023-02-10T05:38:59;102211.06;;;3.27;100.00
21504;BME280;10913;51.992;9.228;2023-02-10T05:41:43;102213.75;;;3.29;100.00
21504;BME280;10913;51.992;9.228;2023-02-10T05:44:08;102220.78;;;3.30;100.00
21504;BME280;10913;51.992;9.228;2023-02-10T05:46:33;102226.91;;;3.30;100.00
21504;BME280;10913;51.992;9.228;2023-02-10T05:48:59;102222.56;;;3.31;100.00
21504;BME280;10913;51.992;9.228;2023-02-10T05:51:24;102227.00;;;3.32;100.00
21504;BME280;10913;51.992;9.228;2023-02-10T05:53:49;102234.81;;;3.32;100.00
21504;BME280;10913;51.992;9.228;2023-02-10T05:56:15;102232.13;;;3.30;100.00
21504;BME280;10913;51.992;9.228;2023-02-10T05:58:40;102237.34;;;3.30;100.00
21504;BME280;10913;51.992;9.228;2023-02-10T06:01:07;102234.81;;;3.32;100.00
21504;BME280;10913;51.992;9.228;2023-02-10T06:03:33;102239.31;;;3.34;100.00
21504;BME280;10913;51.992;9.228;2023-02-10T06:05:58;102236.78;;;3.36;100.00
21504;BME280;10913;51.992;9.228;2023-02-10T06:08:24;102238.59;;;3.37;100.00
21504;BME280;10913;51.992;9.228;2023-02-10T06:10:49;102249.03;;;3.37;100.00
21504;BME280;10913;51.992;9.228;2023-02-10T06:13:15;102240.47;;;3.39;100.00
21504;BME280;10913;51.992;9.228;2023-02-10T06:15:40;102242.19;;;3.39;100.00
21504;BME280;10913;51.992;9.228;2023-02-10T06:18:05;102255.25;;;3.39;100.00
21504;BME280;10913;51.992;9.228;2023-02-10T06:20:31;102259.63;;;3.40;100.00
21504;BME280;10913;51.992;9.228;2023-02-10T06:22:56;102265.84;;;3.42;100.00
21504;BME280;10913;51.992;9.228;2023-02-10T06:25:21;102269.44;;;3.44;100.00
21504;BME280;10913;51.992;9.228;2023-02-10T06:27:47;102274.66;;;3.44;100.00
21504;BME280;10913;51.992;9.228;2023-02-10T06:30:12;102273.84;;;3.45;100.00
21504;BME280;10913;51.992;9.228;2023-02-10T06:32:38;102274.75;;;3.45;100.00
21504;BME280;10913;51.992;9.228;2023-02-10T06:35:03;102276.44;;;3.45;100.00
21504;BME280;10913;51.992;9.228;2023-02-10T06:37:29;102265.19;;;3.46;100.00
21504;BME280;10913;51.992;9.228;2023-02-10T06:39:54;102270.41;;;3.46;100.00
21504;BME280;10913;51.992;9.228;2023-02-10T06:42:20;102275.81;;;3.49;100.00
21504;BME280;10913;51.992;9.228;2023-02-10T06:44:45;102270.59;;;3.49;100.00
21504;BME280;10913;51.992;9.228;2023-02-10T06:47:11;102276.78;;;3.51;100.00
21504;BME280;10913;51.992;9.228;2023-02-10T06:49:36;102282.19;;;3.54;100.00
21504;BME280;10913;51.992;9.228;2023-02-10T06:52:02;102266.44;;;3.53;100.00
21504;BME280;10913;51.992;9.228;2023-02-10T06:54:28;102282.03;;;3.51;100.00
21504;BME280;10913;51.992;9.228;2023-02-10T06:56:53;102288.06;;;3.50;100.00
21504;BME280;10913;51.992;9.228;2023-02-10T06:59:19;102283.72;;;3.51;100.00
21504;BME280;10913;51.992;9.228;2023-02-10T07:01:45;102287.16;;;3.50;100.00
21504;BME280;10913;51.992;9.228;2023-02-10T07:04:11;102288.16;;;3.52;100.00
21504;BME280;10913;51.992;9.228;2023-02-10T07:06:36;102287.34;;;3.53;100.00
21504;BME280;10913;51.992;9.228;2023-02-10T07:09:02;102295.25;;;3.54;100.00
21504;BME280;10913;51.992;9.228;2023-02-10T07:11:29;102297.94;;;3.56;100.00
21504;BME280;10913;51.992;9.228;2023-02-10T07:13:55;102298.94;;;3.58;100.00
21504;BME280;10913;51.992;9.228;2023-02-10T07:16:21;102288.41;;;3.56;100.00
21504;BME280;10913;51.992;9.228;2023-02-10T07:18:46;102287.66;;;3.59;100.00
21504;BME280;10913;51.992;9.228;2023-02-10T07:21:11;102293.94;;;3.62;100.00
21504;BME280;10913;51.992;9.228;2023-02-10T07:23:37;102292.13;;;3.61;100.00
21504;BME280;10913;51.992;9.228;2023-02-10T07:26:04;102289.59;;;3.63;100.00
21504;BME280;10913;51.992;9.228;2023-02-10T07:28:30;102296.72;;;3.65;100.00
21504;BME280;10913;51.992;9.228;2023-02-10T07:30:55;102292.47;;;3.67;100.00
21504;BME280;10913;51.992;9.228;2023-02-10T07:33:20;102294.34;;;3.70;100.00
21504;BME280;10913;51.992;9.228;2023-02-10T07:35:46;102308.31;;;3.70;100.00
21504;BME280;10913;51.992;9.228;2023-02-10T07:38:12;102305.69;;;3.70;100.00
21504;BME280;10913;51.992;9.228;2023-02-10T07:40:37;102298.84;;;3.72;100.00
21504;BME280;10913;51.992;9.228;2023-02-10T07:43:02;102311.00;;;3.72;100.00
21504;BME280;10913;51.992;9.228;2023-02-10T07:45:28;102308.50;;;3.73;100.00
21504;BME280;10913;51.992;9.228;2023-02-10T07:47:56;102313.78;;;3.75;100.00
21504;BME280;10913;51.992;9.228;2023-02-10T07:50:22;102308.66;;;3.76;100.00
21504;BME280;10913;51.992;9.228;2023-02-10T07:52:47;102306.34;;;3.83;100.00
21504;BME280;10913;51.992;9.228;2023-02-10T07:55:13;102310.91;;;3.87;100.00
21504;BME280;10913;51.992;9.228;2023-02-10T07:57:39;102315.34;;;3.88;100.00
21504;BME280;10913;51.992;9.228;2023-02-10T08:00:06;102311.91;;;3.89;100.00
21504;BME280;10913;51.992;9.228;2023-02-10T08:02:32;102308.38;;;3.88;100.00
21504;BME280;10913;51.992;9.228;2023-02-10T08:04:58;102314.50;;;3.89;100.00
21504;BME280;10913;51.992;9.228;2023-02-10T08:07:24;102312.88;;;3.91;100.00
21504;BME280;10913;51.992;9.228;2023-02-10T08:09:49;102308.47;;;3.90;100.00
21504;BME280;10913;51.992;9.228;2023-02-10T08:12:14;102311.97;;;3.90;100.00
21504;BME280;10913;51.992;9.228;2023-02-10T08:14:40;102308.38;;;3.88;100.00
21504;BME280;10913;51.992;9.228;2023-02-10T08:17:05;102315.41;;;3.89;100.00
21504;BME280;10913;51.992;9.228;2023-02-10T08:19:31;102317.03;;;3.87;100.00
21504;BME280;10913;51.992;9.228;2023-02-10T08:21:57;102317.94;;;3.88;100.00
21504;BME280;10913;51.992;9.228;2023-02-10T08:24:22;102316.16;;;3.87;100.00
21504;BME280;10913;51.992;9.228;2023-02-10T08:26:47;102312.72;;;3.88;100.00
21504;BME280;10913;51.992;9.228;2023-02-10T08:29:13;102322.19;;;3.86;100.00
21504;BME280;10913;51.992;9.228;2023-02-10T08:31:39;102320.66;;;3.89;100.00
21504;BME280;10913;51.992;9.228;2023-02-10T08:34:04;102319.91;;;3.92;100.00
21504;BME280;10913;51.992;9.228;2023-02-10T08:36:29;102324.41;;;3.94;100.00
21504;BME280;10913;51.992;9.228;2023-02-10T08:38:56;102322.94;;;3.99;100.00
21504;BME280;10913;51.992;9.228;2023-02-10T08:41:21;102327.56;;;4.05;100.00
21504;BME280;10913;51.992;9.228;2023-02-10T08:43:47;102328.31;;;4.02;100.00
21504;BME280;10913;51.992;9.228;2023-02-10T08:46:13;102331.00;;;4.04;100.00
21504;BME280;10913;51.992;9.228;2023-02-10T08:48:38;102325.84;;;4.05;100.00
21504;BME280;10913;51.992;9.228;2023-02-10T08:51:08;102331.59;;;3.98;100.00
21504;BME280;10913;51.992;9.228;2023-02-10T08:53:34;102330.69;;;3.98;100.00
21504;BME280;10913;51.992;9.228;2023-02-10T08:56:02;102339.50;;;4.00;100.00
21504;BME280;10913;51.992;9.228;2023-02-10T08:58:28;102328.09;;;3.98;100.00
21504;BME280;10913;51.992;9.228;2023-02-10T09:00:54;102334.13;;;3.97;100.00
21504;BME280;10913;51.992;9.228;2023-02-10T09:03:19;102333.81;;;3.91;100.00
21504;BME280;10913;51.992;9.228;2023-02-10T09:05:45;102331.19;;;3.91;100.00
21504;BME280;10913;51.992;9.228;2023-02-10T09:08:12;102328.56;;;3.91;100.00
21504;BME280;10913;51.992;9.228;2023-02-10T09:10:39;102335.78;;;3.95;100.00
21504;BME280;10913;51.992;9.228;2023-02-10T09:13:04;102346.06;;;3.92;100.00
21504;BME280;10913;51.992;9.228;2023-02-10T09:15:29;102344.25;;;3.91;100.00
21504;BME280;10913;51.992;9.228;2023-02-10T09:17:55;102351.28;;;3.92;100.00
21504;BME280;10913;51.992;9.228;2023-02-10T09:20:20;102353.09;;;3.93;100.00
21504;BME280;10913;51.992;9.228;2023-02-10T09:22:45;102354.88;;;3.94;100.00
21504;BME280;10913;51.992;9.228;2023-02-10T09:25:13;102360.38;;;3.98;100.00
21504;BME280;10913;51.992;9.228;2023-02-10T09:27:38;102353.72;;;4.05;100.00
21504;BME280;10913;51.992;9.228;2023-02-10T09:30:04;102350.53;;;4.10;100.00
21504;BME280;10913;51.992;9.228;2023-02-10T09:32:29;102359.28;;;4.11;100.00
21504;BME280;10913;51.992;9.228;2023-02-10T09:34:55;102351.69;;;4.15;100.00
21504;BME280;10913;51.992;9.228;2023-02-10T09:37:21;102358.13;;;4.22;100.00
21504;BME280;10913;51.992;9.228;2023-02-10T09:39:46;102357.38;;;4.25;100.00
21504;BME280;10913;51.992;9.228;2023-02-10T09:45:15;102359.84;;;4.38;100.00
21504;BME280;10913;51.992;9.228;2023-02-10T09:47:57;102357.44;;;4.42;100.00
21504;BME280;10913;51.992;9.228;2023-02-10T09:53:40;102361.50;;;4.54;100.00
21504;BME280;10913;51.992;9.228;2023-02-10T09:56:14;102371.22;;;4.56;100.00
21504;BME280;10913;51.992;9.228;2023-02-10T10:03:59;102365.09;;;4.56;100.00
21504;BME280;10913;51.992;9.228;2023-02-10T10:06:32;102370.63;;;4.62;100.00
21504;BME280;10913;51.992;9.228;2023-02-10T10:10:02;102379.94;;;4.73;100.00
21504;BME280;10913;51.992;9.228;2023-02-10T10:11:57;102382.63;;;4.74;100.00
21504;BME280;10913;51.992;9.228;2023-02-10T10:14:46;102380.09;;;4.76;100.00
21504;BME280;10913;51.992;9.228;2023-02-10T10:30:45;102393.78;;;4.88;100.00
21504;BME280;10913;51.992;9.228;2023-02-10T10:33:50;102394.84;;;4.92;100.00
21504;BME280;10913;51.992;9.228;2023-02-10T10:36:20;102380.03;;;4.92;100.00
21504;BME280;10913;51.992;9.228;2023-02-10T10:38:55;102385.63;;;5.00;100.00
21504;BME280;10913;51.992;9.228;2023-02-10T10:41:26;102385.34;;;5.11;100.00
21504;BME280;10913;51.992;9.228;2023-02-10T10:43:54;102382.25;;;5.20;100.00
21504;BME280;10913;51.992;9.228;2023-02-10T10:46:24;102376.66;;;5.30;99.49
21504;BME280;10913;51.992;9.228;2023-02-10T10:48:50;102379.78;;;5.41;99.30
21504;BME280;10913;51.992;9.228;2023-02-10T10:51:16;102374.16;;;5.51;98.45
21504;BME280;10913;51.992;9.228;2023-02-10T10:56:41;102359.41;;;5.53;96.91
21504;BME280;10913;51.992;9.228;2023-02-10T10:59:15;102350.38;;;5.66;96.98
21504;BME280;10913;51.992;9.228;2023-02-10T11:01:44;102347.81;;;5.67;96.85
21504;BME280;10913;51.992;9.228;2023-02-10T11:06:38;102343.72;;;5.92;95.47
21504;BME280;10913;51.992;9.228;2023-02-10T11:09:13;102338.69;;;5.96;94.00
21504;BME280;10913;51.992;9.228;2023-02-10T11:11:42;102350.16;;;5.98;94.14
21504;BME280;10913;51.992;9.228;2023-02-10T11:14:17;102352.72;;;5.97;94.29
21504;BME280;10913;51.992;9.228;2023-02-10T11:16:48;102346.56;;;5.96;94.09
21504;BME280;10913;51.992;9.228;2023-02-10T11:19:26;102343.66;;;5.90;93.88
21504;BME280;10913;51.992;9.228;2023-02-10T11:21:53;102347.47;;;5.97;94.12
21504;BME280;10913;51.992;9.228;2023-02-10T11:24:20;102336.91;;;5.95;93.99
21504;BME280;10913;51.992;9.228;2023-02-10T11:26:59;102335.03;;;5.93;93.60
21504;BME280;10913;51.992;9.228;2023-02-10T11:29:29;102331.59;;;5.94;93.43
21504;BME280;10913;51.992;9.228;2023-02-10T11:31:55;102328.81;;;5.91;93.55
21504;BME280;10913;51.992;9.228;2023-02-10T11:34:30;102328.00;;;5.92;93.82
21504;BME280;10913;51.992;9.228;2023-02-10T11:36:58;102333.22;;;5.92;93.28
21504;BME280;10913;51.992;9.228;2023-02-10T11:39:37;102329.47;;;5.86;93.52
21504;BME280;10913;51.992;9.228;2023-02-10T11:42:17;102319.81;;;5.85;93.65
21504;BME280;10913;51.992;9.228;2023-02-10T11:44:56;102315.84;;;5.94;94.01
21504;BME280;10913;51.992;9.228;2023-02-10T11:47:23;102321.34;;;6.00;93.63
21504;BME280;10913;51.992;9.228;2023-02-10T11:49:49;102314.84;;;6.11;93.81
21504;BME280;10913;51.992;9.228;2023-02-10T11:52:17;102300.72;;;6.28;92.95
21504;BME280;10913;51.992;9.228;2023-02-10T11:54:44;102302.34;;;6.45;92.49
21504;BME280;10913;51.992;9.228;2023-02-10T12:06:06;102297.97;;;8.02;87.04
21504;BME280;10913;51.992;9.228;2023-02-10T12:11:27;102296.38;;;8.31;83.19
21504;BME280;10913;51.992;9.228;2023-02-10T12:16:43;102291.41;;;8.66;82.93
21504;BME280;10913;51.992;9.228;2023-02-10T12:19:39;102284.41;;;8.93;82.30
21504;BME280;10913;51.992;9.228;2023-02-10T12:25:25;102285.50;;;9.28;80.06
21504;BME280;10913;51.992;9.228;2023-02-10T12:28:02;102278.34;;;9.24;78.69
21504;BME280;10913;51.992;9.228;2023-02-10T12:33:21;102282.47;;;9.14;77.86
21504;BME280;10913;51.992;9.228;2023-02-10T12:38:55;102256.63;;;9.32;78.05
21504;BME280;10913;51.992;9.228;2023-02-10T12:44:05;102259.31;;;9.64;76.35
21504;BME280;10913;51.992;9.228;2023-02-10T12:49:51;102256.63;;;9.32;76.39
21504;BME280;10913;51.992;9.228;2023-02-10T12:57:43;102245.50;;;9.13;76.65
21504;BME280;10913;51.992;9.228;2023-02-10T13:00:15;102251.47;;;9.07;76.90
21504;BME280;10913;51.992;9.228;2023-02-10T13:02:57;102241.38;;;9.22;77.23
21504;BME280;10913;51.992;9.228;2023-02-10T13:05:51;102244.69;;;9.15;76.70
21504;BME280;10913;51.992;9.228;2023-02-10T13:08:36;102232.59;;;9.23;76.50
21504;BME280;10913;51.992;9.228;2023-02-10T13:11:09;102227.19;;;9.17;76.27
21504;BME280;10913;51.992;9.228;2023-02-10T13:13:37;102234.19;;;9.17;76.06
21504;BME280;10913;51.992;9.228;2023-02-10T13:16:14;102233.94;;;9.09;74.66
21504;BME280;10913;51.992;9.228;2023-02-10T13:21:27;102210.66;;;9.24;75.44
21504;BME280;10913;51.992;9.228;2023-02-10T13:24:03;102202.34;;;9.41;75.41
21504;BME280;10913;51.992;9.228;2023-02-10T13:34:42;102190.88;;;9.39;73.57
21504;BME280;10913;51.992;9.228;2023-02-10T13:39:52;102184.28;;;9.24;73.22
21504;BME280;10913;51.992;9.228;2023-02-10T13:45:03;102185.09;;;9.22;72.69
21504;BME280;10913;51.992;9.228;2023-02-10T13:47:40;102180.72;;;9.22;73.61
21504;BME280;10913;51.992;9.228;2023-02-10T13:58:13;102163.59;;;9.38;71.35
21504;BME280;10913;51.992;9.228;2023-02-10T14:05:36;102160.56;;;9.24;72.65
21504;BME280;10913;51.992;9.228;2023-02-10T14:08:36;102164.03;;;9.23;73.44
21504;BME280;10913;51.992;9.228;2023-02-10T14:11:05;102155.13;;;9.20;73.14
21504;BME280;10913;51.992;9.228;2023-02-10T14:13:34;102156.81;;;9.16;72.76
21504;BME280;10913;51.992;9.228;2023-02-10T14:18:43;102164.63;;;9.13;72.65
21504;BME280;10913;51.992;9.228;2023-02-10T14:21:16;102155.88;;;9.14;72.84
21504;BME280;10913;51.992;9.228;2023-02-10T14:23:50;102158.22;;;9.05;72.57
21504;BME280;10913;51.992;9.228;2023-02-10T14:26:22;102164.34;;;9.04;71.69
21504;BME280;10913;51.992;9.228;2023-02-10T14:28:53;102163.31;;;8.97;72.10
21504;BME280;10913;51.992;9.228;2023-02-10T14:31:32;102160.13;;;8.81;70.55
21504;BME280;10913;51.992;9.228;2023-02-10T14:34:03;102159.25;;;8.80;71.17
21504;BME280;10913;51.992;9.228;2023-02-10T14:36:29;102157.28;;;8.73;71.21
21504;BME280;10913;51.992;9.228;2023-02-10T14:38:58;102148.28;;;8.67;71.60
21504;BME280;10913;51.992;9.228;2023-02-10T14:41:26;102147.91;;;8.54;72.81
21504;BME280;10913;51.992;9.228;2023-02-10T14:43:52;102145.94;;;8.47;72.02
21504;BME280;10913;51.992;9.228;2023-02-10T14:46:29;102140.38;;;8.38;72.40
21504;BME280;10913;51.992;9.228;2023-02-10T14:49:07;102140.38;;;8.38;71.89
21504;BME280;10913;51.992;9.228;2023-02-10T14:51:39;102135.25;;;8.16;71.82
21504;BME280;10913;51.992;9.228;2023-02-10T14:54:09;102136.81;;;8.11;72.44
21504;BME280;10913;51.992;9.228;2023-02-10T14:56:35;102130.41;;;8.03;73.00
21504;BME280;10913;51.992;9.228;2023-02-10T14:59:00;102133.97;;;8.05;73.25
21504;BME280;10913;51.992;9.228;2023-02-10T15:01:32;102130.50;;;8.06;73.33
21504;BME280;10913;51.992;9.228;2023-02-10T15:03:59;102126.06;;;8.05;73.68
21504;BME280;10913;51.992;9.228;2023-02-10T15:06:28;102129.56;;;8.04;74.08
21504;BME280;10913;51.992;9.228;2023-02-10T15:08:59;102137.09;;;7.93;74.60